Time;durP1;ratioP1;P1;durP2;ratioP2;P2;SDS_P1;SDS_P2;PMS_P1;PMS_P2;Temp;Humidity;BMP_temperature;BMP_pressure;BME280_temperature;BME280_humidity;BME280_pressure;Samples;Min_cycle;Max_cycle;Signal;HPM_P1;HPM_P2
2022/07/16 00:02:31;;;;;;;;;;;;;;;17.90;88.24;102143.00;5071736;28;20001;-58
2022/07/16 00:04:56;;;;;;;;;;;;;;;17.88;88.51;102138.69;5071527;28;19982;-57
2022/07/16 00:07:21;;;;;;;;;;;;;;;17.85;89.23;102139.72;5071946;28;20389;-58
2022/07/16 00:09:47;;;;;;;;;;;;;;;17.82;89.75;102135.38;5071624;28;20033;-58
2022/07/16 00:12:12;;;;;;;;;;;;;;;17.80;90.10;102134.63;5071502;28;19920;-58
2022/07/16 00:14:37;;;;;;;;;;;;;;;17.77;90.77;102132.09;5071584;28;19912;-58
2022/07/16 00:17:03;;;;;;;;;;;;;;;17.71;91.29;102129.78;5071825;28;19917;-58
2022/07/16 00:19:28;;;;;;;;;;;;;;;17.68;91.91;102128.09;5054900;28;19990;-58
2022/07/16 00:21:54;;;;;;;;;;;;;;;17.66;92.16;102130.00;5071731;28;19959;-58
2022/07/16 00:24:20;;;;;;;;;;;;;;;17.66;92.79;102140.72;5075398;28;20713;-58
2022/07/16 00:26:46;;;;;;;;;;;;;;;17.67;93.44;102126.41;5075483;28;20421;-58
2022/07/16 00:29:12;;;;;;;;;;;;;;;17.65;93.36;102125.59;5057263;28;19923;-58
2022/07/16 00:31:37;;;;;;;;;;;;;;;17.62;94.10;102127.56;5075409;28;19913;-58
2022/07/16 00:34:09;;;;;;;;;;;;;;;17.57;94.30;102127.84;5058113;28;19977;-57
2022/07/16 00:36:35;;;;;;;;;;;;;;;17.51;95.21;102129.03;5075235;28;19904;-57
2022/07/16 00:39:00;;;;;;;;;;;;;;;17.49;95.85;102128.25;5075153;28;19913;-58
2022/07/16 00:41:26;;;;;;;;;;;;;;;17.49;96.65;102122.91;5058461;28;19973;-58
2022/07/16 00:43:52;;;;;;;;;;;;;;;17.52;96.71;102132.59;5074546;28;20002;-58
2022/07/16 00:46:18;;;;;;;;;;;;;;;17.52;96.88;102130.75;5074923;28;20058;-58
2022/07/16 00:48:44;;;;;;;;;;;;;;;17.53;97.21;102129.81;5074935;28;19935;-58
2022/07/16 00:51:09;;;;;;;;;;;;;;;17.58;97.73;102134.06;5074661;28;19924;-59
2022/07/16 00:53:34;;;;;;;;;;;;;;;17.58;97.54;102131.38;5071570;28;19939;-58
2022/07/16 00:56:00;;;;;;;;;;;;;;;17.57;97.92;102135.88;5075135;28;19924;-58
2022/07/16 00:58:26;;;;;;;;;;;;;;;17.57;98.02;102137.66;5075282;28;20438;-58
2022/07/16 01:00:51;;;;;;;;;;;;;;;17.60;98.28;102132.16;5074778;28;19921;-58
2022/07/16 01:03:16;;;;;;;;;;;;;;;17.60;98.54;102130.34;5056938;28;20019;-58
2022/07/16 01:05:42;;;;;;;;;;;;;;;17.63;98.46;102129.31;5057694;28;20275;-58
2022/07/16 01:08:08;;;;;;;;;;;;;;;17.66;98.63;102130.00;5054997;28;20334;-58
2022/07/16 01:10:33;;;;;;;;;;;;;;;17.67;98.29;102125.50;5074570;28;19921;-58
2022/07/16 01:12:59;;;;;;;;;;;;;;;17.67;98.85;102130.88;5074803;28;19916;-57
2022/07/16 01:15:24;;;;;;;;;;;;;;;17.71;98.91;102134.25;5057633;28;19917;-58
2022/07/16 01:17:50;;;;;;;;;;;;;;;17.73;98.93;102125.19;5056599;28;19920;-58
2022/07/16 01:20:15;;;;;;;;;;;;;;;17.76;99.21;102122.34;5074212;28;19923;-58
2022/07/16 01:22:40;;;;;;;;;;;;;;;17.79;99.63;102121.31;5074655;28;19951;-57
2022/07/16 01:25:07;;;;;;;;;;;;;;;17.81;99.45;102128.31;5073897;28;19964;-58
2022/07/16 01:27:32;;;;;;;;;;;;;;;17.85;99.40;102129.00;5073959;28;19920;-58
2022/07/16 01:29:58;;;;;;;;;;;;;;;17.89;99.30;102133.25;5073892;28;19924;-58
2022/07/16 01:32:23;;;;;;;;;;;;;;;17.90;99.80;102123.38;5056482;28;19921;-57
2022/07/16 01:34:48;;;;;;;;;;;;;;;17.85;99.88;102127.19;5073976;28;19916;-58
2022/07/16 01:37:15;;;;;;;;;;;;;;;17.81;100.00;102122.97;5073878;28;19912;-57
2022/07/16 01:39:40;;;;;;;;;;;;;;;17.83;100.00;102133.59;5074006;28;19920;-57
2022/07/16 01:42:06;;;;;;;;;;;;;;;17.85;100.00;102129.00;5056208;28;20058;-57
2022/07/16 01:44:34;;;;;;;;;;;;;;;17.84;100.00;102122.78;5073049;28;19920;-57
2022/07/16 01:47:00;;;;;;;;;;;;;;;17.85;100.00;102132.56;5072654;28;20427;-57
2022/07/16 01:49:29;;;;;;;;;;;;;;;17.85;100.00;102135.22;5072726;28;20059;-58
2022/07/16 01:51:55;;;;;;;;;;;;;;;17.82;100.00;102134.53;5073514;28;19916;-57
2022/07/16 01:54:20;;;;;;;;;;;;;;;17.78;100.00;102132.97;5073833;28;20276;-57
2022/07/16 01:56:45;;;;;;;;;;;;;;;17.72;100.00;102138.66;5073870;28;19912;-58
2022/07/16 01:59:10;;;;;;;;;;;;;;;17.65;100.00;102139.00;5073531;28;19916;-58
2022/07/16 02:01:36;;;;;;;;;;;;;;;17.58;100.00;102137.59;5073366;28;19924;-58
2022/07/16 02:04:01;;;;;;;;;;;;;;;17.50;100.00;102132.63;5073763;28;19963;-56
2022/07/16 02:06:26;;;;;;;;;;;;;;;17.45;100.00;102132.03;5073745;28;19916;-57
2022/07/16 02:08:52;;;;;;;;;;;;;;;17.38;100.00;102145.81;5073489;28;19963;-57
2022/07/16 02:11:17;;;;;;;;;;;;;;;17.30;100.00;102138.19;5069444;28;19956;-58
2022/07/16 02:13:42;;;;;;;;;;;;;;;17.23;100.00;102145.69;5063872;28;19917;-58
2022/07/16 02:16:08;;;;;;;;;;;;;;;17.14;100.00;102149.69;5039040;28;19924;-58
2022/07/16 02:18:33;;;;;;;;;;;;;;;17.07;100.00;102153.63;5053510;28;19913;-58
2022/07/16 02:20:58;;;;;;;;;;;;;;;16.99;100.00;102145.16;5067158;28;19920;-58
2022/07/16 02:23:24;;;;;;;;;;;;;;;16.93;100.00;102156.16;5072860;28;19921;-58
2022/07/16 02:25:49;;;;;;;;;;;;;;;16.85;100.00;102149.38;5073329;28;19916;-58
2022/07/16 02:28:14;;;;;;;;;;;;;;;16.80;100.00;102151.41;5073178;28;19939;-58
2022/07/16 02:30:41;;;;;;;;;;;;;;;16.73;100.00;102155.31;5072602;28;19928;-57
2022/07/16 02:33:07;;;;;;;;;;;;;;;16.67;100.00;102161.81;5072985;28;19924;-58
2022/07/16 02:35:33;;;;;;;;;;;;;;;16.65;100.00;102161.06;5068728;28;19928;-58
2022/07/16 02:37:58;;;;;;;;;;;;;;;16.62;100.00;102166.53;5053226;28;19978;-58
2022/07/16 02:40:23;;;;;;;;;;;;;;;16.57;100.00;102157.88;5035147;28;19919;-58
2022/07/16 02:42:49;;;;;;;;;;;;;;;16.52;100.00;102162.59;5072263;28;20037;-58
2022/07/16 02:45:14;;;;;;;;;;;;;;;16.48;100.00;102172.59;5071908;28;19925;-58
2022/07/16 02:47:39;;;;;;;;;;;;;;;16.46;100.00;102173.56;5072492;28;19916;-58
2022/07/16 02:50:06;;;;;;;;;;;;;;;16.43;100.00;102179.09;5072753;28;19985;-57
2022/07/16 02:52:31;;;;;;;;;;;;;;;16.41;100.00;102172.94;5069610;28;20398;-58
2022/07/16 02:54:56;;;;;;;;;;;;;;;16.37;100.00;102185.59;5072518;28;19929;-58
2022/07/16 02:57:21;;;;;;;;;;;;;;;16.33;100.00;102189.34;5072551;28;19969;-59
2022/07/16 02:59:47;;;;;;;;;;;;;;;16.30;100.00;102187.69;5072653;28;19917;-57
2022/07/16 03:02:12;;;;;;;;;;;;;;;16.28;100.00;102196.72;5069295;28;19924;-58
2022/07/16 03:04:37;;;;;;;;;;;;;;;16.26;100.00;102194.13;5072293;28;19974;-57
2022/07/16 03:07:03;;;;;;;;;;;;;;;16.22;100.00;102200.56;5054624;28;19923;-58
2022/07/16 03:09:28;;;;;;;;;;;;;;;16.23;100.00;102196.94;5072649;28;19920;-57
2022/07/16 03:11:53;;;;;;;;;;;;;;;16.20;100.00;102191.72;5072368;28;19947;-58
2022/07/16 03:14:18;;;;;;;;;;;;;;;16.19;100.00;102198.03;5072105;28;20036;-57
2022/07/16 03:16:44;;;;;;;;;;;;;;;16.16;100.00;102206.19;5072054;28;19917;-57
2022/07/16 03:19:09;;;;;;;;;;;;;;;16.16;100.00;102200.84;5072479;28;19970;-58
2022/07/16 03:21:34;;;;;;;;;;;;;;;16.15;100.00;102202.66;5072226;28;19931;-58
2022/07/16 03:24:00;;;;;;;;;;;;;;;16.13;100.00;102201.84;5072067;28;19924;-58
2022/07/16 03:26:25;;;;;;;;;;;;;;;16.11;100.00;102206.38;5055530;28;19920;-58
2022/07/16 03:28:50;;;;;;;;;;;;;;;16.12;100.00;102199.25;5072204;28;19966;-58
2022/07/16 03:31:17;;;;;;;;;;;;;;;16.10;100.00;102198.44;5071989;28;19921;-58
2022/07/16 03:33:42;;;;;;;;;;;;;;;16.07;100.00;102204.81;5071967;28;19921;-58
2022/07/16 03:36:07;;;;;;;;;;;;;;;16.07;100.00;102207.47;5069636;28;19916;-58
2022/07/16 03:41:16;;;;;;;;;;;;;;;16.03;100.00;102221.91;5072512;28;19962;-58
2022/07/16 03:43:41;;;;;;;;;;;;;;;16.06;100.00;102219.09;5072138;28;19916;-58
2022/07/16 03:46:12;;;;;;;;;;;;;;;16.14;100.00;102224.09;5071652;28;19920;-58
2022/07/16 03:48:37;;;;;;;;;;;;;;;16.19;100.00;102227.44;5070819;28;20004;-58
2022/07/16 03:51:04;;;;;;;;;;;;;;;16.14;100.00;102229.44;5070752;28;20329;-59
2022/07/16 03:53:29;;;;;;;;;;;;;;;16.12;100.00;102236.66;5070959;28;20451;-58
2022/07/16 03:55:54;;;;;;;;;;;;;;;16.06;100.00;102227.09;5069058;28;20003;-59
2022/07/16 03:58:19;;;;;;;;;;;;;;;16.05;100.00;102228.06;5074792;28;19924;-58
2022/07/16 04:00:45;;;;;;;;;;;;;;;16.01;100.00;102234.47;5075629;28;19916;-58
2022/07/16 04:03:10;;;;;;;;;;;;;;;15.98;100.00;102238.16;5075929;28;19917;-56
2022/07/16 04:05:35;;;;;;;;;;;;;;;15.96;100.00;102239.16;5075789;28;19920;-57
2022/07/16 04:08:00;;;;;;;;;;;;;;;15.94;100.00;102238.38;5076005;28;20379;-57
2022/07/16 04:10:25;;;;;;;;;;;;;;;15.93;100.00;102248.19;5074627;28;20295;-57
2022/07/16 04:12:51;;;;;;;;;;;;;;;15.95;100.00;102248.13;5074947;28;19927;-57
2022/07/16 04:15:16;;;;;;;;;;;;;;;15.93;100.00;102250.84;5075783;28;19912;-57
2022/07/16 04:17:41;;;;;;;;;;;;;;;15.96;100.00;102258.75;5058252;28;20303;-57
2022/07/16 04:20:07;;;;;;;;;;;;;;;16.02;100.00;102260.25;5057520;28;19929;-57
2022/07/16 04:22:32;;;;;;;;;;;;;;;16.04;100.00;102258.41;5075661;28;19913;-58
2022/07/16 04:24:57;;;;;;;;;;;;;;;16.03;100.00;102267.34;5075882;28;19920;-58
2022/07/16 04:27:22;;;;;;;;;;;;;;;16.00;100.00;102265.69;5075046;28;19920;-58
2022/07/16 04:29:47;;;;;;;;;;;;;;;15.98;100.00;102269.34;5075436;28;20287;-58
2022/07/16 04:32:13;;;;;;;;;;;;;;;15.94;100.00;102281.97;5074689;28;19920;-58
2022/07/16 04:34:38;;;;;;;;;;;;;;;15.98;100.00;102277.38;5075368;28;20015;-57
2022/07/16 04:37:03;;;;;;;;;;;;;;;16.05;100.00;102279.69;5075119;28;19944;-57
2022/07/16 04:39:28;;;;;;;;;;;;;;;16.17;100.00;102285.44;5057435;28;19920;-57
2022/07/16 04:41:54;;;;;;;;;;;;;;;16.26;100.00;102284.16;5074871;28;19920;-58
2022/07/16 04:44:19;;;;;;;;;;;;;;;16.30;100.00;102288.41;5075248;28;20334;-57
2022/07/16 04:46:44;;;;;;;;;;;;;;;16.27;100.00;102289.41;5075240;28;19923;-58
2022/07/16 04:49:09;;;;;;;;;;;;;;;16.22;100.00;102286.94;5074342;28;19925;-59
2022/07/16 04:51:35;;;;;;;;;;;;;;;16.19;100.00;102283.56;5074523;28;20304;-58
2022/07/16 04:54:00;;;;;;;;;;;;;;;16.14;100.00;102296.22;5074915;28;20007;-58
2022/07/16 04:56:25;;;;;;;;;;;;;;;16.10;100.00;102294.66;5073939;28;19995;-58
2022/07/16 04:58:51;;;;;;;;;;;;;;;16.10;100.00;102294.66;5074552;28;19970;-58
2022/07/16 05:01:16;;;;;;;;;;;;;;;16.12;100.00;102300.81;5073618;28;20335;-58
2022/07/16 05:03:41;;;;;;;;;;;;;;;16.12;100.00;102292.78;5070147;28;19956;-58
2022/07/16 05:06:06;;;;;;;;;;;;;;;16.11;100.00;102293.72;5056956;28;19957;-58
2022/07/16 05:08:31;;;;;;;;;;;;;;;16.12;100.00;102292.78;5059580;28;19924;-59
2022/07/16 05:10:57;;;;;;;;;;;;;;;16.16;100.00;102297.94;5056695;28;20309;-58
2022/07/16 05:13:22;;;;;;;;;;;;;;;16.20;100.00;102293.28;5061918;28;19931;-57
2022/07/16 05:15:47;;;;;;;;;;;;;;;16.17;100.00;102299.66;5073657;28;19916;-57
2022/07/16 05:18:12;;;;;;;;;;;;;;;16.20;100.00;102302.19;5073444;28;20608;-57
2022/07/16 05:20:38;;;;;;;;;;;;;;;16.19;100.00;102303.13;5068776;28;20335;-57
2022/07/16 05:23:03;;;;;;;;;;;;;;;16.19;100.00;102300.47;5074208;28;20350;-57
2022/07/16 05:25:29;;;;;;;;;;;;;;;16.22;100.00;102305.66;5074786;28;20277;-57
2022/07/16 05:27:54;;;;;;;;;;;;;;;16.22;100.00;102304.78;5067877;28;20035;-57
2022/07/16 05:30:19;;;;;;;;;;;;;;;16.24;100.00;102305.59;5069609;28;19958;-57
2022/07/16 05:32:45;;;;;;;;;;;;;;;16.27;100.00;102310.78;5073759;28;20011;-57
2022/07/16 05:35:11;;;;;;;;;;;;;;;16.33;100.00;102320.31;5066019;28;19990;-57
2022/07/16 05:37:37;;;;;;;;;;;;;;;16.41;100.00;102328.00;5074261;28;19922;-57
2022/07/16 05:40:02;;;;;;;;;;;;;;;16.45;100.00;102322.44;5073651;28;19927;-58
2022/07/16 05:42:28;;;;;;;;;;;;;;;16.46;100.00;102326.88;5071044;28;19920;-57
2022/07/16 05:44:53;;;;;;;;;;;;;;;16.48;100.00;102325.00;5073938;28;19928;-57
2022/07/16 05:47:18;;;;;;;;;;;;;;;16.59;100.00;102328.97;5073748;28;19916;-58
2022/07/16 05:49:43;;;;;;;;;;;;;;;16.63;100.00;102325.22;5073609;28;19924;-58
2022/07/16 05:52:09;;;;;;;;;;;;;;;16.71;100.00;102325.72;5073520;28;19916;-57
2022/07/16 05:54:34;;;;;;;;;;;;;;;16.80;100.00;102335.13;5073459;28;19921;-58
2022/07/16 05:56:59;;;;;;;;;;;;;;;16.85;100.00;102333.97;5070211;28;19928;-57
2022/07/16 05:59:24;;;;;;;;;;;;;;;16.90;100.00;102331.06;5036822;28;20008;-57
2022/07/16 06:01:50;;;;;;;;;;;;;;;17.02;100.00;102338.53;5068458;28;20292;-57
2022/07/16 06:04:16;;;;;;;;;;;;;;;17.07;100.00;102343.66;5072865;28;19959;-57
2022/07/16 06:06:41;;;;;;;;;;;;;;;17.14;100.00;102339.75;5073403;28;19959;-58
2022/07/16 06:09:07;;;;;;;;;;;;;;;17.29;100.00;102346.16;5055545;28;19971;-59
2022/07/16 06:11:32;;;;;;;;;;;;;;;17.31;100.00;102344.25;5072823;28;20364;-59
2022/07/16 06:13:57;;;;;;;;;;;;;;;17.32;99.66;102350.50;5073017;28;19928;-58
2022/07/16 06:16:22;;;;;;;;;;;;;;;17.33;99.42;102341.53;5071725;28;19928;-58
2022/07/16 06:18:48;;;;;;;;;;;;;;;17.36;97.82;102350.25;5073196;28;19913;-57
2022/07/16 06:21:13;;;;;;;;;;;;;;;17.43;98.10;102348.16;5072422;28;19917;-58
2022/07/16 06:23:38;;;;;;;;;;;;;;;17.34;92.64;102360.19;5073081;28;19916;-58
2022/07/16 06:26:03;;;;;;;;;;;;;;;17.34;92.00;102356.63;5073058;28;19921;-59
2022/07/16 06:28:29;;;;;;;;;;;;;;;17.41;91.36;102359.91;5073258;28;19926;-58
2022/07/16 06:30:54;;;;;;;;;;;;;;;17.40;91.03;102368.88;5074365;28;20279;-58
2022/07/16 06:33:19;;;;;;;;;;;;;;;17.35;88.05;102371.75;5055129;28;19920;-57
2022/07/16 06:35:45;;;;;;;;;;;;;;;17.42;88.63;102373.19;5069054;28;20003;-57
2022/07/16 06:38:10;;;;;;;;;;;;;;;17.48;87.88;102383.63;5062265;28;20342;-57
2022/07/16 06:40:35;;;;;;;;;;;;;;;17.53;88.19;102386.03;5046352;28;19921;-59
2022/07/16 06:43:00;;;;;;;;;;;;;;;17.58;89.50;102377.78;5068579;28;20287;-59
2022/07/16 06:45:26;;;;;;;;;;;;;;;17.59;88.20;102395.59;5069948;28;19916;-59
2022/07/16 06:47:51;;;;;;;;;;;;;;;17.60;87.07;102392.84;5063273;28;19963;-59
2022/07/16 06:50:17;;;;;;;;;;;;;;;17.62;87.54;102395.44;5047456;28;20024;-59
2022/07/16 06:52:42;;;;;;;;;;;;;;;17.77;87.62;102389.31;5063229;28;19962;-58
2022/07/16 06:55:07;;;;;;;;;;;;;;;17.90;86.70;102397.59;5069283;28;20376;-58
2022/07/16 06:57:33;;;;;;;;;;;;;;;17.93;87.26;102393.88;5063060;28;19916;-58
2022/07/16 06:59:58;;;;;;;;;;;;;;;17.94;86.35;102401.91;5055631;28;19927;-57
2022/07/16 07:02:24;;;;;;;;;;;;;;;17.96;85.81;102400.00;5079241;28;19919;-58
2022/07/16 07:04:49;;;;;;;;;;;;;;;18.04;85.27;102412.16;5067515;28;19920;-58
2022/07/16 07:07:14;;;;;;;;;;;;;;;18.13;86.19;102407.19;5052329;28;19969;-58
2022/07/16 07:09:40;;;;;;;;;;;;;;;18.13;84.50;102414.34;5062864;28;19921;-58
2022/07/16 07:12:06;;;;;;;;;;;;;;;18.04;83.65;102412.16;5068895;28;20011;-57
2022/07/16 07:14:31;;;;;;;;;;;;;;;18.00;83.66;102414.97;5062019;28;19917;-58
2022/07/16 07:16:56;;;;;;;;;;;;;;;18.07;84.20;102422.69;5056089;28;19954;-57
2022/07/16 07:19:21;;;;;;;;;;;;;;;18.10;84.32;102428.78;5061575;28;20300;-58
2022/07/16 07:21:46;;;;;;;;;;;;;;;18.09;82.17;102427.03;5065848;28;20104;-58
2022/07/16 07:24:12;;;;;;;;;;;;;;;18.00;81.20;102430.19;5045874;28;20012;-59
2022/07/16 07:26:37;;;;;;;;;;;;;;;17.84;82.33;102427.41;5053201;28;20007;-58
2022/07/16 07:29:02;;;;;;;;;;;;;;;17.91;84.40;102415.41;5054450;28;20010;-58
2022/07/16 07:31:27;;;;;;;;;;;;;;;18.05;83.83;102420.09;5034556;28;20012;-58
2022/07/16 07:33:53;;;;;;;;;;;;;;;18.16;83.70;102417.72;5056699;28;20007;-58
2022/07/16 07:36:19;;;;;;;;;;;;;;;18.36;81.25;102428.38;5055229;28;19916;-58
2022/07/16 07:38:44;;;;;;;;;;;;;;;18.40;80.08;102425.47;5067869;28;19924;-58
2022/07/16 07:41:09;;;;;;;;;;;;;;;18.39;79.82;102431.75;5052493;28;19928;-58
2022/07/16 07:43:34;;;;;;;;;;;;;;;18.39;77.73;102436.25;5056064;28;19917;-58
2022/07/16 07:46:00;;;;;;;;;;;;;;;18.44;76.64;102428.81;5056192;28;20345;-57
2022/07/16 07:48:25;;;;;;;;;;;;;;;18.53;76.99;102435.50;5063973;28;19924;-59
2022/07/16 07:50:50;;;;;;;;;;;;;;;18.38;77.93;102430.03;5057681;28;19921;-57
2022/07/16 07:53:15;;;;;;;;;;;;;;;18.46;77.37;102433.16;5062102;28;19920;-57
2022/07/16 07:55:41;;;;;;;;;;;;;;;18.49;77.61;102434.81;5059676;28;19921;-57
2022/07/16 07:58:07;;;;;;;;;;;;;;;18.68;77.58;102445.41;5065942;28;19975;-57
2022/07/16 08:00:32;;;;;;;;;;;;;;;18.78;77.28;102438.59;5064965;28;19917;-57
2022/07/16 08:02:58;;;;;;;;;;;;;;;18.91;78.60;102448.72;5059453;28;19921;-57
2022/07/16 08:05:23;;;;;;;;;;;;;;;19.05;76.55;102443.44;5051306;28;20016;-58
2022/07/16 08:07:48;;;;;;;;;;;;;;;19.15;75.57;102447.34;5051705;28;19969;-57
2022/07/16 08:10:14;;;;;;;;;;;;;;;19.26;74.18;102453.94;5055067;28;20023;-57
2022/07/16 08:12:40;;;;;;;;;;;;;;;19.31;73.12;102458.13;5046464;28;19932;-58
2022/07/16 08:15:06;;;;;;;;;;;;;;;19.48;73.16;102461.69;5051588;28;19920;-57
2022/07/16 08:17:31;;;;;;;;;;;;;;;19.51;70.51;102460.63;5050732;28;19921;-58
2022/07/16 08:19:56;;;;;;;;;;;;;;;19.55;71.16;102471.09;5060282;28;19936;-58
2022/07/16 08:22:22;;;;;;;;;;;;;;;19.41;70.95;102471.91;5064829;28;19921;-58
2022/07/16 08:27:30;;;;;;;;;;;;;;;19.32;70.51;102475.09;5056217;28;20070;-58
2022/07/16 08:29:56;;;;;;;;;;;;;;;19.26;69.78;102480.81;5059517;28;20012;-58
2022/07/16 08:32:21;;;;;;;;;;;;;;;19.24;69.74;102480.03;5052775;28;19921;-58
2022/07/16 08:34:46;;;;;;;;;;;;;;;19.36;70.34;102486.53;5065610;28;20009;-57
2022/07/16 08:37:12;;;;;;;;;;;;;;;19.25;70.33;102490.69;5050193;28;19963;-58
2022/07/16 08:39:38;;;;;;;;;;;;;;;19.33;69.56;102490.25;5033398;28;19920;-58
2022/07/16 08:42:03;;;;;;;;;;;;;;;19.34;68.89;102483.94;5034092;28;19970;-58
2022/07/16 08:44:29;;;;;;;;;;;;;;;19.64;71.10;102489.41;5055220;28;19921;-58
2022/07/16 08:46:54;;;;;;;;;;;;;;;20.05;67.38;102501.44;5045491;28;19958;-58
2022/07/16 08:49:20;;;;;;;;;;;;;;;20.79;65.62;102502.41;5068386;28;19921;-59
2022/07/16 08:51:45;;;;;;;;;;;;;;;21.63;60.83;102501.69;5054736;28;19928;-59
2022/07/16 08:54:29;;;;;;;;;;;;;;;21.52;60.14;102505.03;5059206;28;19920;-58
2022/07/16 08:56:54;;;;;;;;;;;;;;;22.20;56.21;102514.06;5046956;28;21247;-59
2022/07/16 08:59:20;;;;;;;;;;;;;;;23.28;51.62;102511.97;5069665;28;19920;-59
2022/07/16 09:01:45;;;;;;;;;;;;;;;24.05;46.83;102514.44;5064168;28;20280;-59
2022/07/16 09:04:11;;;;;;;;;;;;;;;24.51;45.24;102526.25;5057127;28;20290;-58
2022/07/16 09:06:36;;;;;;;;;;;;;;;24.57;45.48;102518.66;5065568;28;19931;-58
2022/07/16 09:09:01;;;;;;;;;;;;;;;24.73;44.33;102527.31;5054438;28;20372;-58
2022/07/16 09:11:28;;;;;;;;;;;;;;;24.82;44.71;102521.19;5062647;28;20304;-57
2022/07/16 09:14:10;;;;;;;;;;;;;;;25.28;43.19;102521.16;5059764;28;19920;-59
2022/07/16 09:16:38;;;;;;;;;;;;;;;25.68;42.31;102521.50;5061804;28;19965;-59
2022/07/16 09:19:04;;;;;;;;;;;;;;;25.58;41.20;102523.25;5070555;28;20006;-58
2022/07/16 09:21:30;;;;;;;;;;;;;;;25.13;41.68;102528.69;5086052;28;19962;-59
2022/07/16 09:23:55;;;;;;;;;;;;;;;24.43;43.32;102530.56;5066289;28;19956;-59
2022/07/16 09:26:23;;;;;;;;;;;;;;;24.24;42.13;102526.53;5068164;28;19931;-59
2022/07/16 09:28:49;;;;;;;;;;;;;;;23.56;44.63;102535.16;5068491;28;19920;-58
2022/07/16 09:31:30;;;;;;;;;;;;;;;24.09;44.03;102534.00;5082783;28;20012;-58
2022/07/16 09:34:21;;;;;;;;;;;;;;;24.06;46.27;102528.81;5071831;28;20668;-57
2022/07/16 09:36:55;;;;;;;;;;;;;;;25.07;43.14;102553.59;5067227;28;19960;-55
2022/07/16 09:39:20;;;;;;;;;;;;;;;25.37;41.91;102549.41;5064816;28;19923;-58
2022/07/16 09:41:47;;;;;;;;;;;;;;;25.62;40.92;102551.00;5050431;28;19921;-53
2022/07/16 09:44:24;;;;;;;;;;;;;;;25.50;41.10;102548.31;5045759;28;20290;-58
2022/07/16 09:47:01;;;;;;;;;;;;;;;25.28;40.56;102557.31;5065186;28;19996;-59
2022/07/16 09:49:27;;;;;;;;;;;;;;;25.85;40.21;102562.66;5067766;28;19924;-58
2022/07/16 09:51:53;;;;;;;;;;;;;;;25.43;40.23;102567.91;5065781;28;19921;-58
2022/07/16 09:54:44;;;;;;;;;;;;;;;25.42;40.40;102568.91;5059759;28;19970;-58
2022/07/16 09:57:09;;;;;;;;;;;;;;;24.99;44.30;102563.19;5063635;28;20484;-58
2022/07/16 09:59:36;;;;;;;;;;;;;;;25.56;41.28;102559.63;5061702;28;19999;-58
2022/07/16 10:02:04;;;;;;;;;;;;;;;25.72;40.26;102567.34;5071774;28;19944;-57
2022/07/16 10:04:30;;;;;;;;;;;;;;;25.56;40.86;102570.47;5064799;28;19925;-57
2022/07/16 10:06:56;;;;;;;;;;;;;;;25.52;39.02;102578.88;5066948;28;19958;-57
2022/07/16 10:09:21;;;;;;;;;;;;;;;24.85;40.55;102568.84;5062995;28;19920;-58
2022/07/16 10:11:47;;;;;;;;;;;;;;;25.00;40.81;102583.00;5064696;28;19928;-58
2022/07/16 10:14:13;;;;;;;;;;;;;;;24.64;42.28;102574.09;5069264;28;19962;-58
2022/07/16 10:16:40;;;;;;;;;;;;;;;25.08;41.40;102564.31;5053337;28;20065;-58
2022/07/16 10:19:06;;;;;;;;;;;;;;;24.87;40.90;102564.16;5062271;28;19917;-58
2022/07/16 10:21:33;;;;;;;;;;;;;;;25.06;40.63;102573.56;5062432;28;20364;-58
2022/07/16 10:24:08;;;;;;;;;;;;;;;25.68;38.64;102581.19;5066594;28;19924;-58
2022/07/16 10:26:34;;;;;;;;;;;;;;;25.77;38.52;102567.84;5063480;28;19923;-58
2022/07/16 10:29:00;;;;;;;;;;;;;;;25.61;38.22;102569.09;5068535;28;19920;-58
2022/07/16 10:31:39;;;;;;;;;;;;;;;25.43;39.76;102576.91;5070301;28;19928;-59
2022/07/16 10:34:30;;;;;;;;;;;;;;;25.06;41.26;102577.09;5060411;28;20292;-59
2022/07/16 10:36:55;;;;;;;;;;;;;;;24.89;41.78;102573.03;5051078;28;19917;-58
2022/07/16 10:39:22;;;;;;;;;;;;;;;24.98;41.52;102587.72;5065357;28;19928;-58
2022/07/16 10:41:49;;;;;;;;;;;;;;;24.58;41.20;102591.66;5063573;28;20226;-58
2022/07/16 10:44:14;;;;;;;;;;;;;;;24.37;41.70;102589.63;5065839;28;19959;-58
2022/07/16 10:46:52;;;;;;;;;;;;;;;24.51;41.88;102588.53;5061523;28;19916;-58
2022/07/16 10:49:18;;;;;;;;;;;;;;;24.76;40.78;102602.06;5047920;28;19920;-58
2022/07/16 10:51:53;;;;;;;;;;;;;;;24.93;39.64;102593.47;5057515;28;19933;-58
2022/07/16 10:54:20;;;;;;;;;;;;;;;25.54;39.56;102597.75;5047816;28;20197;-58
2022/07/16 10:56:47;;;;;;;;;;;;;;;25.84;37.43;102610.66;5035692;28;20007;-58
2022/07/16 10:59:14;;;;;;;;;;;;;;;25.55;38.95;102609.44;5047166;28;20338;-57
2022/07/16 11:01:40;;;;;;;;;;;;;;;25.42;40.53;102615.00;5046938;28;20004;-58
2022/07/16 11:04:06;;;;;;;;;;;;;;;25.69;39.21;102617.31;5049907;28;19917;-58
2022/07/16 11:06:32;;;;;;;;;;;;;;;25.72;38.18;102617.06;5067069;28;19986;-58
2022/07/16 11:09:02;;;;;;;;;;;;;;;25.93;37.69;102610.88;5056116;28;20405;-58
2022/07/16 11:11:31;;;;;;;;;;;;;;;25.68;37.99;102612.91;5036664;28;19917;-57
2022/07/16 11:13:57;;;;;;;;;;;;;;;26.07;38.02;102612.47;5035425;28;19959;-58
2022/07/16 11:16:22;;;;;;;;;;;;;;;25.99;38.32;102607.66;5047600;28;20315;-58
2022/07/16 11:18:47;;;;;;;;;;;;;;;26.37;38.71;102622.63;5040474;28;20368;-58
2022/07/16 11:21:12;;;;;;;;;;;;;;;26.52;36.34;102616.88;5036145;28;19920;-58
2022/07/16 11:23:50;;;;;;;;;;;;;;;26.57;36.67;102617.31;5052405;28;19920;-57
2022/07/16 11:26:16;;;;;;;;;;;;;;;26.35;38.07;102610.16;5045922;28;19940;-58
2022/07/16 11:28:54;;;;;;;;;;;;;;;25.33;39.19;102609.31;5053748;28;20368;-58
2022/07/16 11:31:26;;;;;;;;;;;;;;;25.28;40.86;102618.78;5048200;28;19936;-58
2022/07/16 11:33:53;;;;;;;;;;;;;;;25.77;41.43;102619.41;5047530;28;19921;-58
2022/07/16 11:36:19;;;;;;;;;;;;;;;26.11;39.24;102627.50;5045064;28;19928;-57
2022/07/16 11:38:45;;;;;;;;;;;;;;;25.84;39.52;102626.94;5031877;28;20012;-59
2022/07/16 11:41:10;;;;;;;;;;;;;;;25.66;38.84;102626.56;5044330;28;20012;-58
2022/07/16 11:43:36;;;;;;;;;;;;;;;25.66;39.87;102633.84;5035762;28;20016;-58
2022/07/16 11:46:01;;;;;;;;;;;;;;;25.57;38.97;102631.88;5042552;28;20380;-58
2022/07/16 11:48:34;;;;;;;;;;;;;;;25.58;39.22;102629.03;5053775;28;19930;-58
2022/07/16 11:51:05;;;;;;;;;;;;;;;25.62;38.43;102626.97;5061629;28;20019;-59
2022/07/16 11:53:33;;;;;;;;;;;;;;;25.18;39.63;102629.50;5062156;28;19936;-58
2022/07/16 11:55:59;;;;;;;;;;;;;;;25.66;40.37;102623.84;5064072;28;20023;-58
2022/07/16 11:58:24;;;;;;;;;;;;;;;25.61;39.88;102623.34;5048787;28;20345;-55
2022/07/16 12:00:50;;;;;;;;;;;;;;;25.69;40.12;102622.72;5052143;28;19938;-51
2022/07/16 12:03:15;;;;;;;;;;;;;;;25.53;38.24;102633.97;5040019;28;19921;-56
2022/07/16 12:05:41;;;;;;;;;;;;;;;25.59;39.34;102628.06;5061247;28;19913;-58
2022/07/16 12:08:10;;;;;;;;;;;;;;;25.75;39.11;102633.09;5055863;28;19920;-58
2022/07/16 12:10:35;;;;;;;;;;;;;;;25.64;39.55;102633.97;5056427;28;19986;-60
2022/07/16 12:13:05;;;;;;;;;;;;;;;25.30;39.84;102636.66;5061971;28;19921;-59
2022/07/16 12:15:31;;;;;;;;;;;;;;;25.30;40.71;102631.22;5062747;28;19939;-59
2022/07/16 12:18:10;;;;;;;;;;;;;;;25.84;39.65;102635.06;5061503;28;19920;-60
2022/07/16 12:20:35;;;;;;;;;;;;;;;25.56;39.00;102632.88;5073450;28;19917;-58
2022/07/16 12:23:05;;;;;;;;;;;;;;;25.49;38.35;102644.22;5055266;28;20057;-59
2022/07/16 12:25:37;;;;;;;;;;;;;;;25.56;38.40;102641.00;5063186;28;19916;-58
2022/07/16 12:28:06;;;;;;;;;;;;;;;26.01;38.48;102628.25;5072968;28;20372;-58
2022/07/16 12:30:33;;;;;;;;;;;;;;;26.26;37.35;102636.22;5043291;28;19952;-59
2022/07/16 12:32:59;;;;;;;;;;;;;;;26.35;36.69;102648.19;5066970;28;20001;-58
2022/07/16 12:35:42;;;;;;;;;;;;;;;26.31;38.23;102644.84;5069470;28;19938;-58